Time;durP1;ratioP1;P1;durP2;ratioP2;P2;SDS_P1;SDS_P2;PMS_P1;PMS_P2;Temp;Humidity;BMP_temperature;BMP_pressure;BME280_temperature;BME280_humidity;BME280_pressure;Samples;Min_cycle;Max_cycle;Signal;HPM_P1;HPM_P2
2023/09/06 00:01:16;;;;;;;0.40;0.40;;;14.80;99.90;;;;;;5034140;28;20661;-74
2023/09/06 00:03:42;;;;;;;0.50;0.50;;;14.80;99.90;;;;;;5052230;28;20244;-74
2023/09/06 00:06:08;;;;;;;0.43;0.43;;;14.80;99.90;;;;;;5034749;28;20293;-74
2023/09/06 00:08:33;;;;;;;0.70;0.70;;;14.70;99.90;;;;;;5052519;28;20193;-74
2023/09/06 00:11:06;;;;;;;0.30;0.30;;;14.80;99.90;;;;;;5052265;28;20220;-74
2023/09/06 00:13:33;;;;;;;0.30;0.30;;;14.70;99.90;;;;;;5052119;28;20272;-74
2023/09/06 00:16:00;;;;;;;0.60;0.60;;;14.70;99.90;;;;;;5052328;28;20205;-74
2023/09/06 00:18:27;;;;;;;0.45;0.45;;;14.70;99.90;;;;;;5052106;28;20204;-74
2023/09/06 00:20:53;;;;;;;0.52;0.52;;;14.70;99.90;;;;;;5052545;28;20186;-72
2023/09/06 00:23:20;;;;;;;0.40;0.40;;;14.60;99.90;;;;;;5052195;28;20274;-72
2023/09/06 00:25:46;;;;;;;0.40;0.40;;;14.60;99.90;;;;;;5051357;28;20806;-72
2023/09/06 00:28:13;;;;;;;0.50;0.50;;;14.50;99.90;;;;;;5035223;28;20234;-72
2023/09/06 00:30:38;;;;;;;0.40;0.40;;;14.40;99.90;;;;;;5030421;28;20288;-72
2023/09/06 00:33:06;;;;;;;0.43;0.43;;;14.40;99.90;;;;;;5032352;28;20747;-72
2023/09/06 00:35:33;;;;;;;0.40;0.40;;;14.30;99.90;;;;;;5032031;28;20194;-72
2023/09/06 00:38:05;;;;;;;0.40;0.40;;;14.30;99.90;;;;;;5032407;28;20191;-72
2023/09/06 00:40:35;;;;;;;0.30;0.30;;;14.30;99.90;;;;;;5032229;28;20186;-72
2023/09/06 00:43:03;;;;;;;0.50;0.50;;;14.20;99.90;;;;;;5062891;28;20193;-72
2023/09/06 00:45:44;;;;;;;0.50;0.50;;;14.20;99.90;;;;;;5053882;28;20193;-73
2023/09/06 00:48:12;;;;;;;0.35;0.35;;;14.20;99.90;;;;;;5069222;28;20232;-72
2023/09/06 00:50:42;;;;;;;0.45;0.45;;;14.20;99.90;;;;;;5072069;28;20322;-73
2023/09/06 00:53:08;;;;;;;0.40;0.40;;;14.20;99.90;;;;;;5072002;28;20280;-73
2023/09/06 00:55:37;;;;;;;0.40;0.40;;;14.10;99.90;;;;;;5074282;28;20569;-71
2023/09/06 00:58:07;;;;;;;0.70;0.70;;;14.10;99.90;;;;;;5069833;28;20198;-72
2023/09/06 01:00:35;;;;;;;0.40;0.40;;;14.00;99.90;;;;;;5055721;28;21003;-73
2023/09/06 01:03:04;;;;;;;0.50;0.50;;;14.10;99.90;;;;;;5055799;28;20247;-73
2023/09/06 01:05:40;;;;;;;0.40;0.40;;;14.00;99.90;;;;;;5061239;23;20325;-73
2023/09/06 01:08:09;;;;;;;0.40;0.40;;;14.00;99.90;;;;;;5092742;28;20215;-73
2023/09/06 01:10:36;;;;;;;0.40;0.40;;;13.90;99.90;;;;;;5076751;28;20287;-72
2023/09/06 01:13:02;;;;;;;0.40;0.40;;;13.80;99.90;;;;;;5095046;28;20247;-72
2023/09/06 01:15:28;;;;;;;0.40;0.40;;;13.80;99.90;;;;;;5095181;28;20211;-72
2023/09/06 01:17:55;;;;;;;0.40;0.40;;;13.80;99.90;;;;;;5094141;28;20192;-73
2023/09/06 01:20:29;;;;;;;0.43;0.43;;;13.70;99.90;;;;;;5094677;28;20220;-73
2023/09/06 01:23:24;;;;;;;0.43;0.43;;;13.70;99.90;;;;;;5095495;28;20670;-72
2023/09/06 01:25:50;;;;;;;0.47;0.47;;;13.60;99.90;;;;;;5042500;28;20657;-73
2023/09/06 01:28:17;;;;;;;0.50;0.50;;;13.60;99.90;;;;;;5071012;28;20601;-73
2023/09/06 01:30:42;;;;;;;0.30;0.30;;;13.60;99.90;;;;;;5074142;28;20191;-73
2023/09/06 01:33:08;;;;;;;0.32;0.32;;;13.60;99.90;;;;;;5056568;28;20270;-73
2023/09/06 01:35:34;;;;;;;0.50;0.50;;;13.50;99.90;;;;;;5056307;28;20208;-72
2023/09/06 01:37:59;;;;;;;0.50;0.50;;;13.60;99.90;;;;;;5074477;28;20189;-73
2023/09/06 01:40:28;;;;;;;0.40;0.40;;;13.60;99.90;;;;;;5074334;28;20271;-73
2023/09/06 01:42:54;;;;;;;0.50;0.50;;;13.50;99.90;;;;;;5074465;28;20600;-73
2023/09/06 01:45:20;;;;;;;0.50;0.50;;;13.50;99.90;;;;;;5056527;28;20204;-73
2023/09/06 01:47:48;;;;;;;0.50;0.50;;;13.50;99.90;;;;;;5074233;28;20611;-73
2023/09/06 01:50:19;;;;;;;0.50;0.50;;;13.50;99.90;;;;;;5056159;28;20196;-72
2023/09/06 01:52:46;;;;;;;0.45;0.45;;;13.50;99.90;;;;;;5074059;28;20459;-73
2023/09/06 01:55:12;;;;;;;0.50;0.50;;;13.50;99.90;;;;;;5073708;28;20205;-72
2023/09/06 01:57:37;;;;;;;0.75;0.60;;;13.50;99.90;;;;;;5074220;28;20193;-72
2023/09/06 02:00:25;;;;;;;0.40;0.40;;;13.40;99.90;;;;;;5074191;28;20264;-73
2023/09/06 02:02:51;;;;;;;0.40;0.40;;;13.40;99.90;;;;;;5056019;28;20228;-72
2023/09/06 02:05:17;;;;;;;0.60;0.60;;;13.40;99.90;;;;;;5073309;28;20264;-72
2023/09/06 02:07:45;;;;;;;0.60;0.60;;;13.30;99.90;;;;;;5056076;28;20201;-73
2023/09/06 02:10:10;;;;;;;0.50;0.50;;;13.30;99.90;;;;;;5055940;28;20201;-72
2023/09/06 02:12:37;;;;;;;0.75;0.75;;;13.30;99.90;;;;;;5072184;28;20200;-72
2023/09/06 02:15:08;;;;;;;0.40;0.40;;;13.30;99.90;;;;;;5055673;28;20725;-73
2023/09/06 02:17:35;;;;;;;4.57;0.95;;;13.20;99.90;;;;;;5055294;28;20655;-73
2023/09/06 02:20:12;;;;;;;0.50;0.50;;;13.10;99.90;;;;;;5073886;28;20197;-71
2023/09/06 02:22:42;;;;;;;0.50;0.50;;;13.10;99.90;;;;;;5073566;28;20192;-70
2023/09/06 02:25:09;;;;;;;0.50;0.50;;;13.10;99.90;;;;;;5055326;28;20200;-70
2023/09/06 02:27:35;;;;;;;0.40;0.40;;;13.10;99.90;;;;;;5073172;28;20652;-71
2023/09/06 02:30:05;;;;;;;0.50;0.50;;;13.00;99.90;;;;;;5073476;28;20562;-71
2023/09/06 02:32:31;;;;;;;0.43;0.43;;;13.00;99.90;;;;;;5073244;28;20543;-71
2023/09/06 02:34:58;;;;;;;0.50;0.50;;;13.00;99.90;;;;;;5073168;28;20189;-71
2023/09/06 02:37:23;;;;;;;0.43;0.43;;;13.00;99.90;;;;;;5073076;28;20188;-72
2023/09/06 02:39:52;;;;;;;0.50;0.50;;;12.90;99.90;;;;;;5055245;28;20203;-69
2023/09/06 02:42:19;;;;;;;0.45;0.45;;;12.90;99.90;;;;;;5073313;28;20201;-71
2023/09/06 02:44:44;;;;;;;4.50;1.35;;;12.80;99.90;;;;;;5055161;28;20287;-71
2023/09/06 02:47:11;;;;;;;0.60;0.60;;;12.80;99.90;;;;;;5055213;28;20284;-71
2023/09/06 02:49:41;;;;;;;0.50;0.50;;;12.80;99.90;;;;;;5072892;28;20193;-72
2023/09/06 02:52:12;;;;;;;0.50;0.50;;;12.70;99.90;;;;;;5072573;28;20254;-71
2023/09/06 02:54:42;;;;;;;0.80;0.80;;;12.60;99.90;;;;;;5072661;28;20197;-71
2023/09/06 02:57:10;;;;;;;0.50;0.50;;;12.60;99.90;;;;;;5072948;28;20254;-71
2023/09/06 02:59:35;;;;;;;0.60;0.60;;;12.50;99.90;;;;;;5072769;28;20420;-70
2023/09/06 03:02:05;;;;;;;0.60;0.60;;;12.40;99.90;;;;;;5071840;28;20559;-72
2023/09/06 03:04:35;;;;;;;0.60;0.60;;;12.40;99.90;;;;;;5072395;28;20236;-71
2023/09/06 03:07:02;;;;;;;0.40;0.40;;;12.30;99.90;;;;;;5054808;28;20193;-71
2023/09/06 03:09:28;;;;;;;0.65;0.65;;;12.30;99.90;;;;;;5061336;28;20265;-71
2023/09/06 03:11:54;;;;;;;0.57;0.57;;;12.20;99.90;;;;;;5074657;28;20619;-71
2023/09/06 03:14:22;;;;;;;0.50;0.50;;;12.20;99.90;;;;;;5063417;28;20201;-71
2023/09/06 03:16:53;;;;;;;0.52;0.52;;;12.10;99.90;;;;;;5072303;28;20670;-68
2023/09/06 03:19:19;;;;;;;0.50;0.50;;;12.00;99.90;;;;;;5054595;28;20679;-71
2023/09/06 03:21:44;;;;;;;0.50;0.50;;;12.00;99.90;;;;;;5072365;28;20222;-71
2023/09/06 03:24:13;;;;;;;4.03;0.65;;;12.00;99.90;;;;;;5054333;28;20196;-70
2023/09/06 03:26:43;;;;;;;0.50;0.50;;;11.90;99.90;;;;;;5053048;28;20192;-71
2023/09/06 03:29:10;;;;;;;0.50;0.50;;;11.90;99.90;;;;;;5072589;28;20185;-75
2023/09/06 03:31:42;;;;;;;0.50;0.50;;;11.80;99.90;;;;;;5054009;28;20673;-75
2023/09/06 03:34:15;;;;;;;0.50;0.50;;;11.80;99.90;;;;;;5072313;28;20185;-76
2023/09/06 03:36:41;;;;;;;0.57;0.57;;;11.80;99.90;;;;;;5053972;28;20663;-75
2023/09/06 03:39:12;;;;;;;0.50;0.50;;;11.70;99.90;;;;;;5054553;28;20193;-75
2023/09/06 03:41:42;;;;;;;0.50;0.50;;;11.70;99.90;;;;;;5071952;28;20195;-75
2023/09/06 03:44:08;;;;;;;0.50;0.50;;;11.60;99.90;;;;;;5054133;28;20204;-75
2023/09/06 03:46:34;;;;;;;0.50;0.50;;;11.50;99.90;;;;;;5053717;28;20197;-75
2023/09/06 03:49:05;;;;;;;0.57;0.57;;;11.50;99.90;;;;;;5072166;28;20197;-74
2023/09/06 03:51:31;;;;;;;0.60;0.60;;;11.50;99.90;;;;;;5071959;28;20189;-75
2023/09/06 03:53:59;;;;;;;0.50;0.50;;;11.50;99.90;;;;;;5072118;28;20677;-75
2023/09/06 03:56:24;;;;;;;0.70;0.70;;;11.40;99.90;;;;;;5053781;28;20209;-75
2023/09/06 03:58:53;;;;;;;0.50;0.50;;;11.40;99.90;;;;;;5071721;28;20262;-75
2023/09/06 04:01:19;;;;;;;0.50;0.50;;;11.30;99.90;;;;;;5071827;28;20185;-74
2023/09/06 04:03:50;;;;;;;0.50;0.50;;;11.30;99.90;;;;;;5071988;28;20738;-75
2023/09/06 04:06:16;;;;;;;0.50;0.50;;;11.20;99.90;;;;;;5071843;28;20248;-75
2023/09/06 04:08:43;;;;;;;0.40;0.40;;;11.20;99.90;;;;;;5072046;28;20184;-75
2023/09/06 04:11:12;;;;;;;0.60;0.60;;;11.10;99.90;;;;;;5071882;28;20189;-75
2023/09/06 04:13:39;;;;;;;0.50;0.50;;;11.00;99.90;;;;;;5053733;28;20262;-75
2023/09/06 04:16:05;;;;;;;0.70;0.70;;;10.90;99.90;;;;;;5053774;28;20208;-75
2023/09/06 04:18:31;;;;;;;0.52;0.52;;;10.80;99.90;;;;;;5071467;28;20272;-75
2023/09/06 04:20:59;;;;;;;0.60;0.60;;;10.80;99.90;;;;;;5070685;28;20292;-75
2023/09/06 04:23:25;;;;;;;0.50;0.50;;;10.70;99.90;;;;;;5071726;28;20185;-75
2023/09/06 04:25:51;;;;;;;0.52;0.52;;;10.70;99.90;;;;;;5053423;28;20288;-75
2023/09/06 04:28:20;;;;;;;0.63;0.63;;;10.70;99.90;;;;;;5053584;28;20229;-75
2023/09/06 04:30:46;;;;;;;0.50;0.50;;;10.60;99.90;;;;;;5074581;28;20196;-75
2023/09/06 04:33:14;;;;;;;0.50;0.50;;;10.70;99.90;;;;;;5075750;28;20279;-75
2023/09/06 04:35:44;;;;;;;0.50;0.50;;;10.70;99.90;;;;;;5075344;28;20205;-75
2023/09/06 04:38:12;;;;;;;0.70;0.70;;;10.70;99.90;;;;;;5057566;28;20189;-74
2023/09/06 04:40:38;;;;;;;0.60;0.60;;;10.70;99.90;;;;;;5075673;28;20197;-71
2023/09/06 04:43:05;;;;;;;0.60;0.60;;;10.80;99.90;;;;;;5075110;28;20185;-70
2023/09/06 04:45:31;;;;;;;0.50;0.50;;;10.90;99.90;;;;;;5075215;28;20201;-71
2023/09/06 04:47:57;;;;;;;0.55;0.55;;;10.90;99.90;;;;;;5057407;28;20743;-70
2023/09/06 04:50:24;;;;;;;0.60;0.60;;;10.90;99.90;;;;;;5057060;28;20291;-71
2023/09/06 04:52:53;;;;;;;0.50;0.50;;;11.00;99.90;;;;;;5057396;28;20201;-70
2023/09/06 04:55:19;;;;;;;0.60;0.60;;;11.00;99.90;;;;;;5057023;28;20674;-71
2023/09/06 04:57:49;;;;;;;0.60;0.60;;;11.00;99.90;;;;;;5057013;28;20193;-71
2023/09/06 05:00:23;;;;;;;0.50;0.50;;;11.00;99.90;;;;;;5075103;28;20663;-70
2023/09/06 05:02:49;;;;;;;0.57;0.57;;;11.00;99.90;;;;;;5056931;28;20197;-70
2023/09/06 05:05:15;;;;;;;0.60;0.60;;;11.00;99.90;;;;;;5074828;28;20282;-71
2023/09/06 05:07:42;;;;;;;0.57;0.57;;;11.00;99.90;;;;;;5056767;28;20197;-70
2023/09/06 05:10:11;;;;;;;0.80;0.80;;;11.10;99.90;;;;;;5056985;28;20732;-71
2023/09/06 05:12:37;;;;;;;0.57;0.57;;;11.10;99.90;;;;;;5074843;28;20220;-70
2023/09/06 05:15:04;;;;;;;0.50;0.50;;;11.10;99.90;;;;;;5056833;28;20686;-71
2023/09/06 05:17:30;;;;;;;0.50;0.50;;;11.20;99.90;;;;;;5074317;28;20199;-71
2023/09/06 05:20:22;;;;;;;0.50;0.50;;;11.20;99.90;;;;;;5074870;28;20193;-71
2023/09/06 05:22:48;;;;;;;0.55;0.55;;;11.30;99.90;;;;;;5056661;28;20193;-70
2023/09/06 05:25:14;;;;;;;0.60;0.60;;;11.30;99.90;;;;;;5056460;28;20254;-70
2023/09/06 05:27:40;;;;;;;0.60;0.60;;;11.30;99.90;;;;;;5056463;28;20288;-70
2023/09/06 05:30:06;;;;;;;0.50;0.50;;;11.30;99.90;;;;;;5074519;28;20208;-71
2023/09/06 05:32:32;;;;;;;0.50;0.50;;;11.40;99.90;;;;;;5074236;28;20192;-71
2023/09/06 05:34:57;;;;;;;0.60;0.60;;;11.50;99.90;;;;;;5074618;28;20247;-71
2023/09/06 05:37:24;;;;;;;0.50;0.50;;;11.50;99.90;;;;;;5056481;28;20291;-70
2023/09/06 05:39:50;;;;;;;0.60;0.60;;;11.40;99.90;;;;;;5055738;28;20196;-70
2023/09/06 05:42:17;;;;;;;0.50;0.50;;;11.40;99.90;;;;;;5074399;28;20239;-70
2023/09/06 05:44:43;;;;;;;0.60;0.60;;;11.50;99.90;;;;;;5074305;28;20181;-70
2023/09/06 05:47:09;;;;;;;0.50;0.50;;;11.70;99.90;;;;;;5056179;28;20200;-70
2023/09/06 05:49:38;;;;;;;0.60;0.60;;;11.80;99.90;;;;;;5074283;28;20291;-71
2023/09/06 05:52:04;;;;;;;0.50;0.50;;;11.80;99.90;;;;;;5055735;28;20569;-71
2023/09/06 05:54:30;;;;;;;0.50;0.50;;;11.70;99.90;;;;;;5055562;28;20204;-71
2023/09/06 05:56:56;;;;;;;0.55;0.55;;;11.70;99.90;;;;;;5073791;28;20205;-72
2023/09/06 05:59:23;;;;;;;0.60;0.60;;;11.70;99.90;;;;;;5073307;28;20193;-71
2023/09/06 06:01:49;;;;;;;0.52;0.52;;;11.70;99.90;;;;;;5055948;28;20197;-71
2023/09/06 06:04:15;;;;;;;0.50;0.50;;;11.70;99.90;;;;;;5073121;28;20221;-72
2023/09/06 06:06:47;;;;;;;0.60;0.60;;;11.70;99.90;;;;;;5055421;28;20628;-71
2023/09/06 06:09:15;;;;;;;0.50;0.50;;;11.80;99.90;;;;;;5073712;28;20363;-71
2023/09/06 06:11:41;;;;;;;0.57;0.57;;;11.90;99.90;;;;;;5073653;28;20238;-71
2023/09/06 06:14:07;;;;;;;0.50;0.50;;;11.90;99.90;;;;;;5055628;28;20200;-72
2023/09/06 06:16:34;;;;;;;0.55;0.55;;;12.00;99.90;;;;;;5073460;28;20309;-72
2023/09/06 06:19:00;;;;;;;0.40;0.40;;;12.30;99.90;;;;;;5073215;28;20238;-72
2023/09/06 06:21:31;;;;;;;0.50;0.50;;;12.50;99.90;;;;;;5073533;28;20201;-72
2023/09/06 06:24:08;;;;;;;;;;;;;;;;;;;;;
2023/09/06 06:26:37;;;;;;;0.40;0.40;;;12.90;99.90;;;;;;5073252;28;20564;-71
2023/09/06 06:29:03;;;;;;;0.40;0.40;;;13.00;99.90;;;;;;5055409;28;20311;-71
2023/09/06 06:31:29;;;;;;;0.70;0.70;;;13.10;99.90;;;;;;5072959;28;20216;-72
2023/09/06 06:33:55;;;;;;;0.50;0.50;;;13.20;99.90;;;;;;5055339;28;20769;-72
2023/09/06 06:36:22;;;;;;;0.50;0.50;;;13.40;99.90;;;;;;5072755;28;20250;-71
2023/09/06 06:38:48;;;;;;;0.47;0.47;;;13.40;99.90;;;;;;5054666;28;20205;-71
2023/09/06 06:41:20;;;;;;;0.60;0.60;;;13.30;99.90;;;;;;5073227;28;20223;-71
2023/09/06 06:43:49;;;;;;;0.50;0.50;;;13.10;99.90;;;;;;5055269;28;20193;-71
2023/09/06 06:46:27;;;;;;;0.65;0.65;;;13.00;99.90;;;;;;5054913;28;20243;-71
2023/09/06 06:49:07;;;;;;;0.50;0.50;;;13.00;99.90;;;;;;5072995;28;20200;-71
2023/09/06 06:51:36;;;;;;;0.40;0.40;;;13.10;99.90;;;;;;5072342;28;20280;-71
2023/09/06 06:54:16;;;;;;;0.68;0.68;;;13.00;99.90;;;;;;5054636;28;20687;-71
2023/09/06 06:56:44;;;;;;;0.60;0.60;;;13.00;99.90;;;;;;5072627;28;20200;-71
2023/09/06 06:59:10;;;;;;;0.50;0.50;;;13.10;99.90;;;;;;5055084;28;20197;-72
2023/09/06 07:01:37;;;;;;;0.50;0.50;;;13.20;99.90;;;;;;5072593;28;20212;-70
2023/09/06 07:04:04;;;;;;;0.50;0.50;;;13.30;99.90;;;;;;5072408;28;20594;-70
2023/09/06 07:06:30;;;;;;;0.50;0.50;;;13.50;99.90;;;;;;5072426;28;20192;-70
2023/09/06 07:08:57;;;;;;;0.47;0.47;;;13.70;99.90;;;;;;5072590;28;20207;-70
2023/09/06 07:11:24;;;;;;;0.40;0.40;;;13.90;99.90;;;;;;5072416;28;20310;-70
2023/09/06 07:13:50;;;;;;;0.43;0.43;;;14.10;99.90;;;;;;5071225;28;20247;-70
2023/09/06 07:16:17;;;;;;;0.40;0.40;;;14.20;99.90;;;;;;5072098;28;20219;-71
2023/09/06 07:18:45;;;;;;;0.40;0.40;;;14.40;99.90;;;;;;5054484;28;20246;-70
2023/09/06 07:21:11;;;;;;;0.40;0.40;;;14.50;99.90;;;;;;5072530;28;20189;-71
2023/09/06 07:23:37;;;;;;;0.50;0.50;;;14.50;99.90;;;;;;5072256;28;20207;-70
2023/09/06 07:26:04;;;;;;;0.40;0.40;;;14.60;99.90;;;;;;5052349;28;20194;-70
2023/09/06 07:28:41;;;;;;;0.40;0.40;;;14.60;99.90;;;;;;5034235;28;20202;-70
2023/09/06 07:31:07;;;;;;;0.82;0.45;;;14.60;99.90;;;;;;5052226;28;20200;-70
2023/09/06 07:33:33;;;;;;;0.50;0.50;;;14.80;99.90;;;;;;5072338;28;20280;-70
2023/09/06 07:35:59;;;;;;;0.40;0.40;;;15.10;99.90;;;;;;5062722;28;20205;-71
2023/09/06 07:38:25;;;;;;;0.38;0.38;;;15.30;99.90;;;;;;5052077;28;20651;-69
2023/09/06 07:41:02;;;;;;;0.40;0.40;;;15.30;99.90;;;;;;5051044;28;20774;-69
2023/09/06 07:43:29;;;;;;;0.30;0.30;;;15.30;99.90;;;;;;5060967;28;20655;-71
2023/09/06 07:45:59;;;;;;;0.50;0.50;;;15.50;99.90;;;;;;5072071;28;20279;-70
2023/09/06 07:48:29;;;;;;;0.38;0.38;;;15.60;99.90;;;;;;5053831;28;20586;-70
2023/09/06 07:50:59;;;;;;;0.40;0.40;;;15.70;99.90;;;;;;5072114;28;20562;-71
2023/09/06 07:53:28;;;;;;;0.30;0.30;;;15.60;99.90;;;;;;5071803;28;20200;-69
2023/09/06 07:55:55;;;;;;;0.40;0.40;;;15.80;99.90;;;;;;5071832;28;20200;-69
2023/09/06 07:58:21;;;;;;;0.40;0.40;;;16.00;99.90;;;;;;5071812;28;20192;-69
2023/09/06 08:00:48;;;;;;;0.40;0.40;;;16.20;99.90;;;;;;5072021;28;20207;-69
2023/09/06 08:03:14;;;;;;;0.30;0.30;;;16.30;99.90;;;;;;5071497;28;20197;-70
2023/09/06 08:05:40;;;;;;;0.40;0.40;;;16.40;99.90;;;;;;5071524;28;20856;-69
2023/09/06 08:08:11;;;;;;;0.40;0.40;;;16.50;99.90;;;;;;5053909;28;20201;-69
2023/09/06 08:10:37;;;;;;;0.30;0.30;;;16.60;99.90;;;;;;5071907;28;20193;-69
2023/09/06 08:13:04;;;;;;;0.40;0.40;;;16.60;99.90;;;;;;5071513;28;20261;-70
2023/09/06 08:15:35;;;;;;;0.50;0.50;;;16.70;99.90;;;;;;5071519;28;20209;-70
2023/09/06 08:18:03;;;;;;;0.40;0.40;;;16.80;99.90;;;;;;5071584;28;20196;-70
2023/09/06 08:20:29;;;;;;;0.30;0.30;;;17.00;99.90;;;;;;5053843;28;20217;-70
2023/09/06 08:22:55;;;;;;;0.30;0.30;;;17.20;99.90;;;;;;5053994;28;20232;-71
2023/09/06 08:25:21;;;;;;;0.30;0.30;;;17.50;99.90;;;;;;5053304;28;20617;-70
2023/09/06 08:27:46;;;;;;;0.55;0.45;;;17.70;99.90;;;;;;5071485;28;20541;-71
2023/09/06 08:30:15;;;;;;;0.30;0.30;;;17.80;99.90;;;;;;5053511;28;20212;-70
2023/09/06 08:32:43;;;;;;;0.30;0.30;;;17.80;99.90;;;;;;5071626;28;20188;-70
2023/09/06 08:35:13;;;;;;;0.30;0.30;;;17.80;99.90;;;;;;5069174;28;20189;-69
2023/09/06 08:37:40;;;;;;;0.20;0.20;;;17.80;99.90;;;;;;5051400;28;20201;-70
2023/09/06 08:40:06;;;;;;;0.28;0.28;;;17.80;99.90;;;;;;5063813;28;20208;-69
2023/09/06 08:42:36;;;;;;;0.40;0.40;;;17.90;99.90;;;;;;5071384;28;20271;-70
2023/09/06 08:45:05;;;;;;;0.45;0.45;;;18.00;99.90;;;;;;5071450;28;20185;-70
2023/09/06 08:47:32;;;;;;;0.30;0.30;;;18.10;99.90;;;;;;5053407;28;20254;-70
2023/09/06 08:49:59;;;;;;;0.20;0.20;;;18.20;99.90;;;;;;5071516;28;20727;-70
2023/09/06 08:52:25;;;;;;;0.47;0.30;;;18.40;99.90;;;;;;5071570;28;20189;-70
2023/09/06 08:54:51;;;;;;;1.17;0.95;;;18.70;99.90;;;;;;5071467;28;20700;-67
2023/09/06 08:57:19;;;;;;;0.30;0.30;;;18.90;99.90;;;;;;5053352;28;20219;-69
2023/09/06 08:59:46;;;;;;;0.20;0.20;;;18.80;99.90;;;;;;5070219;28;20193;-69
2023/09/06 09:02:14;;;;;;;0.20;0.20;;;18.60;99.90;;;;;;5071293;28;20207;-69
2023/09/06 09:04:42;;;;;;;0.30;0.30;;;18.70;99.90;;;;;;5053131;28;20232;-70
2023/09/06 09:07:11;;;;;;;0.22;0.22;;;19.10;99.90;;;;;;5071348;28;20189;-70
2023/09/06 09:10:00;;;;;;;0.90;0.50;;;19.30;99.90;;;;;;5070847;28;20207;-70
2023/09/06 09:12:28;;;;;;;0.40;0.40;;;19.30;99.90;;;;;;5053292;28;20219;-70
2023/09/06 09:14:54;;;;;;;0.20;0.20;;;19.60;99.90;;;;;;5071440;28;20207;-70
2023/09/06 09:17:27;;;;;;;0.20;0.20;;;19.70;99.90;;;;;;5074504;28;20213;-71
2023/09/06 09:19:55;;;;;;;0.22;0.22;;;20.10;99.90;;;;;;5075127;28;20192;-69
2023/09/06 09:22:37;;;;;;;2.00;0.50;;;20.40;99.90;;;;;;5074608;28;20185;-71
2023/09/06 09:25:14;;;;;;;0.20;0.20;;;20.60;99.90;;;;;;5056841;28;20270;-69
2023/09/06 09:27:42;;;;;;;0.30;0.30;;;20.50;99.90;;;;;;5056496;28;20663;-69
2023/09/06 09:30:09;;;;;;;0.20;0.20;;;20.10;99.90;;;;;;5056682;28;20224;-70
2023/09/06 09:32:37;;;;;;;0.40;0.40;;;20.10;99.90;;;;;;5056536;28;20272;-69
2023/09/06 09:35:04;;;;;;;0.70;0.43;;;20.20;99.90;;;;;;5056312;28;20197;-70
2023/09/06 09:37:30;;;;;;;0.20;0.20;;;20.50;99.90;;;;;;5074448;28;20564;-70
2023/09/06 09:39:56;;;;;;;0.63;0.25;;;20.70;99.90;;;;;;5074584;28;20188;-70
2023/09/06 09:42:22;;;;;;;0.20;0.20;;;20.90;99.90;;;;;;5074615;28;20248;-70
2023/09/06 09:45:01;;;;;;;0.20;0.20;;;21.00;99.90;;;;;;5074775;28;20197;-71
2023/09/06 09:47:29;;;;;;;0.20;0.20;;;21.10;99.90;;;;;;5074232;28;20188;-71
2023/09/06 09:49:55;;;;;;;0.40;0.40;;;21.20;99.90;;;;;;5056263;28;20197;-71
2023/09/06 09:52:25;;;;;;;0.30;0.30;;;21.30;99.90;;;;;;5057513;28;20193;-71
2023/09/06 09:54:51;;;;;;;0.40;0.40;;;21.00;99.90;;;;;;5074783;28;20212;-70
2023/09/06 09:57:21;;;;;;;0.20;0.20;;;20.40;99.90;;;;;;5074102;28;20213;-70
2023/09/06 09:59:49;;;;;;;0.40;0.40;;;20.20;99.90;;;;;;5074082;28;20728;-71
2023/09/06 10:02:16;;;;;;;0.55;0.30;;;20.40;99.90;;;;;;5073911;28;20189;-71
2023/09/06 10:04:44;;;;;;;0.20;0.20;;;20.60;99.90;;;;;;5052219;28;20306;-71
2023/09/06 10:07:14;;;;;;;0.30;0.30;;;21.20;99.90;;;;;;5054016;28;20597;-71
2023/09/06 10:09:41;;;;;;;0.20;0.20;;;21.80;99.90;;;;;;5053776;28;20243;-68
2023/09/06 10:12:13;;;;;;;0.15;0.15;;;22.10;99.90;;;;;;5053881;28;20200;-71
2023/09/06 10:14:41;;;;;;;0.30;0.30;;;22.50;99.90;;;;;;5053783;28;20193;-70
2023/09/06 10:17:08;;;;;;;0.20;0.20;;;22.30;99.90;;;;;;5052545;28;20245;-70
2023/09/06 10:19:35;;;;;;;0.10;0.10;;;22.90;99.90;;;;;;5053535;28;20605;-71
2023/09/06 10:22:02;;;;;;;0.20;0.20;;;23.00;99.90;;;;;;5053467;28;20197;-74
2023/09/06 10:24:33;;;;;;;0.20;0.20;;;22.90;99.90;;;;;;5051953;28;20208;-74
2023/09/06 10:26:59;;;;;;;0.20;0.20;;;23.10;99.90;;;;;;5053401;28;20201;-73
2023/09/06 10:29:28;;;;;;;0.73;0.47;;;23.40;99.90;;;;;;5053482;28;20193;-73
2023/09/06 10:32:01;;;;;;;0.20;0.20;;;23.60;99.90;;;;;;5053454;28;20201;-73
2023/09/06 10:34:31;;;;;;;0.20;0.20;;;23.90;99.90;;;;;;5052071;28;20197;-74
2023/09/06 10:37:00;;;;;;;0.43;0.32;;;23.80;99.90;;;;;;5053354;28;20734;-73
2023/09/06 10:39:28;;;;;;;0.43;0.43;;;23.40;99.90;;;;;;5053480;28;20186;-73
2023/09/06 10:42:09;;;;;;;0.15;0.15;;;23.20;99.90;;;;;;5053361;28;20615;-73
2023/09/06 10:45:01;;;;;;;1.77;0.35;;;23.50;99.90;;;;;;5053416;28;20193;-74
2023/09/06 10:47:33;;;;;;;0.38;0.38;;;23.60;99.90;;;;;;5050934;28;20679;-73
2023/09/06 10:50:11;;;;;;;0.20;0.20;;;24.00;99.90;;;;;;5051685;28;20197;-75
2023/09/06 10:52:45;;;;;;;0.57;0.30;;;24.50;99.90;;;;;;5051687;28;20574;-73
2023/09/06 10:55:20;;;;;;;0.40;0.38;;;24.60;99.90;;;;;;5051748;28;20284;-73
2023/09/06 10:58:03;;;;;;;0.43;0.25;;;24.00;99.90;;;;;;5052937;28;20186;-74
2023/09/06 11:00:30;;;;;;;0.22;0.22;;;24.00;99.90;;;;;;5052720;28;20285;-71
2023/09/06 11:03:08;;;;;;;0.10;0.10;;;24.50;99.90;;;;;;5052873;28;20660;-74
2023/09/06 11:05:38;;;;;;;6.28;0.55;;;24.70;99.90;;;;;;5066101;28;20229;-71
2023/09/06 11:08:06;;;;;;;0.13;0.13;;;24.60;99.90;;;;;;5054805;28;20243;-73
2023/09/06 11:10:32;;;;;;;0.20;0.20;;;24.50;99.90;;;;;;5054663;28;20200;-73
2023/09/06 11:13:10;;;;;;;0.40;0.40;;;24.40;99.90;;;;;;5072496;28;20652;-74
2023/09/06 11:15:36;;;;;;;0.20;0.20;;;24.40;99.90;;;;;;5072292;28;20576;-74
2023/09/06 11:18:03;;;;;;;0.90;0.30;;;24.50;99.90;;;;;;5072387;28;20189;-73
2023/09/06 11:20:31;;;;;;;0.20;0.20;;;24.70;99.90;;;;;;5072373;28;20254;-72
2023/09/06 11:23:00;;;;;;;0.10;0.10;;;24.30;99.90;;;;;;5072557;28;20227;-73
2023/09/06 11:25:28;;;;;;;0.10;0.10;;;24.40;99.90;;;;;;5071978;28;20196;-73
2023/09/06 11:27:58;;;;;;;0.17;0.17;;;24.60;99.90;;;;;;5072470;28;20296;-73
2023/09/06 11:30:26;;;;;;;0.10;0.10;;;24.80;99.90;;;;;;5072407;28;20200;-75
2023/09/06 11:32:53;;;;;;;0.32;0.32;;;24.90;99.90;;;;;;5072266;28;20207;-73
2023/09/06 11:35:26;;;;;;;0.10;0.10;;;25.30;99.90;;;;;;5071236;28;20692;-73
2023/09/06 11:37:53;;;;;;;0.10;0.10;;;25.60;99.90;;;;;;5071928;28;20193;-73
2023/09/06 11:40:20;;;;;;;0.32;0.32;;;25.10;99.90;;;;;;5072160;28;20667;-72
2023/09/06 11:42:55;;;;;;;3.53;0.50;;;25.00;99.90;;;;;;5071863;28;20189;-70
2023/09/06 11:45:26;;;;;;;0.20;0.20;;;24.90;99.90;;;;;;5071578;28;20723;-71
2023/09/06 11:47:54;;;;;;;0.10;0.10;;;25.30;99.90;;;;;;5072073;28;20611;-73
2023/09/06 11:50:23;;;;;;;0.20;0.20;;;25.60;99.90;;;;;;5071591;28;20203;-73
2023/09/06 11:52:50;;;;;;;0.10;0.10;;;25.60;99.90;;;;;;5054203;28;20656;-73
2023/09/06 11:55:17;;;;;;;0.10;0.10;;;25.60;99.90;;;;;;5071901;28;20692;-73
2023/09/06 11:57:51;;;;;;;0.60;0.40;;;25.70;99.90;;;;;;5053704;28;20196;-73
2023/09/06 12:00:27;;;;;;;0.50;0.50;;;25.40;99.90;;;;;;5053956;28;20200;-73
2023/09/06 12:02:54;;;;;;;0.10;0.10;;;25.40;99.90;;;;;;5053154;28;20196;-73
2023/09/06 12:05:29;;;;;;;0.50;0.32;;;25.40;99.90;;;;;;5070786;28;20224;-73
2023/09/06 12:07:55;;;;;;;0.20;0.20;;;25.40;99.90;;;;;;5071938;28;20267;-73
2023/09/06 12:10:22;;;;;;;0.30;0.30;;;25.20;99.90;;;;;;5071586;28;20189;-73
2023/09/06 12:12:49;;;;;;;0.20;0.20;;;25.00;99.90;;;;;;5071758;28;20238;-74
2023/09/06 12:15:20;;;;;;;0.35;0.35;;;25.20;99.90;;;;;;5055787;28;20189;-75
2023/09/06 12:17:50;;;;;;;0.30;0.30;;;25.70;99.90;;;;;;5091951;28;20184;-73
2023/09/06 12:20:20;;;;;;;0.30;0.30;;;24.70;99.90;;;;;;5074208;28;20537;-73
2023/09/06 12:22:46;;;;;;;0.20;0.20;;;24.10;99.90;;;;;;5074131;28;20219;-75
2023/09/06 12:25:14;;;;;;;0.32;0.30;;;24.10;99.90;;;;;;5078837;28;20610;-73
2023/09/06 12:27:43;;;;;;;0.38;0.28;;;24.10;99.90;;;;;;5071498;28;20184;-73
2023/09/06 12:30:10;;;;;;;0.10;0.10;;;24.10;99.90;;;;;;5053627;28;20564;-73
2023/09/06 12:32:40;;;;;;;0.38;0.38;;;24.30;99.90;;;;;;5053423;28;20624;-70
2023/09/06 12:35:07;;;;;;;0.22;0.22;;;24.40;99.90;;;;;;5071465;28;20193;-76
2023/09/06 12:37:34;;;;;;;8.43;2.28;;;24.10;99.90;;;;;;5053355;28;20205;-73
2023/09/06 12:40:00;;;;;;;0.63;0.63;;;23.70;99.90;;;;;;5071894;28;20185;-72
2023/09/06 12:42:26;;;;;;;0.43;0.43;;;23.30;99.90;;;;;;5071333;28;20196;-72
2023/09/06 12:44:51;;;;;;;2.75;0.77;;;23.30;99.90;;;;;;5071431;28;20189;-72
2023/09/06 12:47:20;;;;;;;0.10;0.10;;;23.40;99.90;;;;;;5071455;28;20197;-72
2023/09/06 12:49:46;;;;;;;0.20;0.20;;;23.30;99.90;;;;;;5053514;28;20197;-73
2023/09/06 12:52:13;;;;;;;0.15;0.15;;;22.90;99.90;;;;;;5056968;28;20216;-72
2023/09/06 12:54:39;;;;;;;0.40;0.40;;;22.40;99.90;;;;;;5074771;28;20250;-73